sensor_id;sensor_type;location;lat;lon;timestamp;temperature;humidity
51595;DHT22;37677;53.254;6.594;2022-07-10T00:00:31;14.50;1.00
51595;DHT22;37677;53.254;6.594;2022-07-10T00:02:57;14.50;1.00
51595;DHT22;37677;53.254;6.594;2022-07-10T00:05:24;14.50;1.00
51595;DHT22;37677;53.254;6.594;2022-07-10T00:07:51;14.50;1.00
51595;DHT22;37677;53.254;6.594;2022-07-10T00:10:17;14.50;1.00
51595;DHT22;37677;53.254;6.594;2022-07-10T00:12:44;14.50;1.00
51595;DHT22;37677;53.254;6.594;2022-07-10T00:15:10;14.40;1.00
51595;DHT22;37677;53.254;6.594;2022-07-10T00:17:36;14.40;1.00
51595;DHT22;37677;53.254;6.594;2022-07-10T00:20:02;14.30;1.00
51595;DHT22;37677;53.254;6.594;2022-07-10T00:22:28;14.30;1.00
51595;DHT22;37677;53.254;6.594;2022-07-10T00:24:54;14.30;1.00
51595;DHT22;37677;53.254;6.594;2022-07-10T00:27:20;14.30;1.00
51595;DHT22;37677;53.254;6.594;2022-07-10T00:29:46;14.20;1.00
51595;DHT22;37677;53.254;6.594;2022-07-10T00:32:12;14.30;1.00
51595;DHT22;37677;53.254;6.594;2022-07-10T00:34:38;14.50;1.00
51595;DHT22;37677;53.254;6.594;2022-07-10T00:37:04;14.40;1.00
51595;DHT22;37677;53.254;6.594;2022-07-10T00:39:32;14.30;1.00
51595;DHT22;37677;53.254;6.594;2022-07-10T00:42:12;14.40;1.00
51595;DHT22;37677;53.254;6.594;2022-07-10T00:44:39;14.30;1.00
51595;DHT22;37677;53.254;6.594;2022-07-10T00:47:05;14.30;1.00
51595;DHT22;37677;53.254;6.594;2022-07-10T00:49:35;14.30;1.00
51595;DHT22;37677;53.254;6.594;2022-07-10T00:52:10;14.30;1.00
51595;DHT22;37677;53.254;6.594;2022-07-10T00:54:37;14.30;1.00
51595;DHT22;37677;53.254;6.594;2022-07-10T00:57:04;14.20;1.00
51595;DHT22;37677;53.254;6.594;2022-07-10T00:59:34;14.30;1.00
51595;DHT22;37677;53.254;6.594;2022-07-10T01:02:02;14.20;1.00
51595;DHT22;37677;53.254;6.594;2022-07-10T01:04:27;14.30;1.00
51595;DHT22;37677;53.254;6.594;2022-07-10T01:06:53;14.30;1.00
51595;DHT22;37677;53.254;6.594;2022-07-10T01:09:19;14.20;1.00
51595;DHT22;37677;53.254;6.594;2022-07-10T01:11:45;14.30;1.00
51595;DHT22;37677;53.254;6.594;2022-07-10T01:14:11;14.30;1.00
51595;DHT22;37677;53.254;6.594;2022-07-10T01:16:37;14.30;1.00
51595;DHT22;37677;53.254;6.594;2022-07-10T01:19:03;14.30;1.00
51595;DHT22;37677;53.254;6.594;2022-07-10T01:21:33;14.30;1.00
51595;DHT22;37677;53.254;6.594;2022-07-10T01:24:01;14.30;1.00
51595;DHT22;37677;53.254;6.594;2022-07-10T01:26:28;14.30;1.00
51595;DHT22;37677;53.254;6.594;2022-07-10T01:28:54;14.30;1.00
51595;DHT22;37677;53.254;6.594;2022-07-10T01:31:24;14.30;1.00
51595;DHT22;37677;53.254;6.594;2022-07-10T01:33:50;14.30;1.00
51595;DHT22;37677;53.254;6.594;2022-07-10T01:36:16;14.30;1.00
51595;DHT22;37677;53.254;6.594;2022-07-10T01:38:42;14.40;1.00
51595;DHT22;37677;53.254;6.594;2022-07-10T01:41:08;14.30;1.00
51595;DHT22;37677;53.254;6.594;2022-07-10T01:43:37;14.30;1.00
51595;DHT22;37677;53.254;6.594;2022-07-10T01:46:03;14.20;1.00
51595;DHT22;37677;53.254;6.594;2022-07-10T01:48:30;14.20;1.00
51595;DHT22;37677;53.254;6.594;2022-07-10T01:50:56;14.30;1.00
51595;DHT22;37677;53.254;6.594;2022-07-10T01:53:22;14.20;1.00
51595;DHT22;37677;53.254;6.594;2022-07-10T01:55:48;14.20;1.00
51595;DHT22;37677;53.254;6.594;2022-07-10T01:58:14;13.90;1.00
51595;DHT22;37677;53.254;6.594;2022-07-10T02:00:39;14.10;1.00
51595;DHT22;37677;53.254;6.594;2022-07-10T02:03:05;14.10;1.00
51595;DHT22;37677;53.254;6.594;2022-07-10T02:05:49;14.10;1.00
51595;DHT22;37677;53.254;6.594;2022-07-10T02:08:15;14.10;1.00
51595;DHT22;37677;53.254;6.594;2022-07-10T02:10:41;14.10;1.00
51595;DHT22;37677;53.254;6.594;2022-07-10T02:13:07;14.10;1.00
51595;DHT22;37677;53.254;6.594;2022-07-10T02:15:33;14.10;1.00
51595;DHT22;37677;53.254;6.594;2022-07-10T02:17:58;14.10;1.00
51595;DHT22;37677;53.254;6.594;2022-07-10T02:20:24;14.10;1.00
51595;DHT22;37677;53.254;6.594;2022-07-10T02:22:50;14.10;1.00
51595;DHT22;37677;53.254;6.594;2022-07-10T02:25:15;14.10;1.00
51595;DHT22;37677;53.254;6.594;2022-07-10T02:27:41;14.00;1.00
51595;DHT22;37677;53.254;6.594;2022-07-10T02:30:07;14.00;1.00
51595;DHT22;37677;53.254;6.594;2022-07-10T02:32:32;14.00;1.00
51595;DHT22;37677;53.254;6.594;2022-07-10T02:34:58;14.00;1.00
51595;DHT22;37677;53.254;6.594;2022-07-10T02:37:24;14.20;1.00
51595;DHT22;37677;53.254;6.594;2022-07-10T02:39:50;14.00;1.00
51595;DHT22;37677;53.254;6.594;2022-07-10T02:42:16;13.90;1.00
51595;DHT22;37677;53.254;6.594;2022-07-10T02:44:41;13.90;1.00
51595;DHT22;37677;53.254;6.594;2022-07-10T02:47:07;14.00;1.00
51595;DHT22;37677;53.254;6.594;2022-07-10T02:49:33;13.90;1.00
51595;DHT22;37677;53.254;6.594;2022-07-10T02:51:58;14.00;1.00
51595;DHT22;37677;53.254;6.594;2022-07-10T02:54:24;14.00;1.00
51595;DHT22;37677;53.254;6.594;2022-07-10T02:56:50;14.00;1.00
51595;DHT22;37677;53.254;6.594;2022-07-10T02:59:16;14.00;1.00
51595;DHT22;37677;53.254;6.594;2022-07-10T03:01:43;14.00;1.00
51595;DHT22;37677;53.254;6.594;2022-07-10T03:04:09;14.00;1.00
51595;DHT22;37677;53.254;6.594;2022-07-10T03:06:35;14.00;1.00
51595;DHT22;37677;53.254;6.594;2022-07-10T03:09:00;14.00;1.00
51595;DHT22;37677;53.254;6.594;2022-07-10T03:11:26;14.40;1.00
51595;DHT22;37677;53.254;6.594;2022-07-10T03:13:51;14.00;1.00
51595;DHT22;37677;53.254;6.594;2022-07-10T03:16:17;14.00;1.00
51595;DHT22;37677;53.254;6.594;2022-07-10T03:18:43;13.90;1.00
51595;DHT22;37677;53.254;6.594;2022-07-10T03:21:08;14.40;1.00
51595;DHT22;37677;53.254;6.594;2022-07-10T03:23:34;14.90;1.00
51595;DHT22;37677;53.254;6.594;2022-07-10T03:26:00;14.40;1.00
51595;DHT22;37677;53.254;6.594;2022-07-10T03:28:25;14.10;1.00
51595;DHT22;37677;53.254;6.594;2022-07-10T03:30:51;14.10;1.00
51595;DHT22;37677;53.254;6.594;2022-07-10T03:33:17;14.00;1.00
51595;DHT22;37677;53.254;6.594;2022-07-10T03:35:42;14.10;1.00
51595;DHT22;37677;53.254;6.594;2022-07-10T03:38:08;14.10;1.00
51595;DHT22;37677;53.254;6.594;2022-07-10T03:40:34;14.10;1.00
51595;DHT22;37677;53.254;6.594;2022-07-10T03:42:59;14.20;1.00
51595;DHT22;37677;53.254;6.594;2022-07-10T03:45:25;14.30;1.00
51595;DHT22;37677;53.254;6.594;2022-07-10T03:47:51;14.30;1.00
51595;DHT22;37677;53.254;6.594;2022-07-10T03:50:16;14.30;1.00
51595;DHT22;37677;53.254;6.594;2022-07-10T03:52:42;14.40;1.00
51595;DHT22;37677;53.254;6.594;2022-07-10T03:55:10;14.40;1.00
51595;DHT22;37677;53.254;6.594;2022-07-10T03:57:35;14.50;1.00
51595;DHT22;37677;53.254;6.594;2022-07-10T04:00:29;14.50;1.00
51595;DHT22;37677;53.254;6.594;2022-07-10T04:02:59;14.50;1.00
51595;DHT22;37677;53.254;6.594;2022-07-10T04:05:25;14.50;1.00
51595;DHT22;37677;53.254;6.594;2022-07-10T04:07:51;14.60;1.00
51595;DHT22;37677;53.254;6.594;2022-07-10T04:10:17;14.60;1.00
51595;DHT22;37677;53.254;6.594;2022-07-10T04:12:44;14.60;1.00
51595;DHT22;37677;53.254;6.594;2022-07-10T04:15:09;14.60;1.00
51595;DHT22;37677;53.254;6.594;2022-07-10T04:17:35;14.70;1.00
51595;DHT22;37677;53.254;6.594;2022-07-10T04:20:01;14.70;1.00
51595;DHT22;37677;53.254;6.594;2022-07-10T04:22:27;14.70;1.00
51595;DHT22;37677;53.254;6.594;2022-07-10T04:24:54;14.60;3.90
51595;DHT22;37677;53.254;6.594;2022-07-10T04:27:19;14.60;5.50
51595;DHT22;37677;53.254;6.594;2022-07-10T04:29:46;14.70;6.50
51595;DHT22;37677;53.254;6.594;2022-07-10T04:32:13;14.70;3.00
51595;DHT22;37677;53.254;6.594;2022-07-10T04:34:38;14.70;1.00
51595;DHT22;37677;53.254;6.594;2022-07-10T04:37:05;15.10;1.00
51595;DHT22;37677;53.254;6.594;2022-07-10T04:39:33;14.80;1.00
51595;DHT22;37677;53.254;6.594;2022-07-10T04:41:59;14.90;1.00
51595;DHT22;37677;53.254;6.594;2022-07-10T04:44:25;14.80;1.00
51595;DHT22;37677;53.254;6.594;2022-07-10T04:46:50;14.80;1.00
51595;DHT22;37677;53.254;6.594;2022-07-10T04:49:16;14.80;1.00
51595;DHT22;37677;53.254;6.594;2022-07-10T04:51:42;14.80;1.00
51595;DHT22;37677;53.254;6.594;2022-07-10T04:54:07;14.90;1.00
51595;DHT22;37677;53.254;6.594;2022-07-10T04:56:33;14.80;1.00
51595;DHT22;37677;53.254;6.594;2022-07-10T04:58:59;14.80;1.00
51595;DHT22;37677;53.254;6.594;2022-07-10T05:01:25;14.90;1.00
51595;DHT22;37677;53.254;6.594;2022-07-10T05:03:50;14.90;1.00
51595;DHT22;37677;53.254;6.594;2022-07-10T05:06:16;15.00;1.00
51595;DHT22;37677;53.254;6.594;2022-07-10T05:08:41;15.00;1.00
51595;DHT22;37677;53.254;6.594;2022-07-10T05:11:07;15.00;1.00
51595;DHT22;37677;53.254;6.594;2022-07-10T05:13:33;15.00;1.00
51595;DHT22;37677;53.254;6.594;2022-07-10T05:15:58;15.00;1.00
51595;DHT22;37677;53.254;6.594;2022-07-10T05:18:24;15.00;1.00
51595;DHT22;37677;53.254;6.594;2022-07-10T05:20:50;15.10;1.00
51595;DHT22;37677;53.254;6.594;2022-07-10T05:23:16;15.10;1.00
51595;DHT22;37677;53.254;6.594;2022-07-10T05:25:42;15.10;1.00
51595;DHT22;37677;53.254;6.594;2022-07-10T05:28:08;15.20;1.00
51595;DHT22;37677;53.254;6.594;2022-07-10T05:30:33;15.20;1.00
51595;DHT22;37677;53.254;6.594;2022-07-10T05:32:59;15.20;1.00
51595;DHT22;37677;53.254;6.594;2022-07-10T05:35:26;15.30;1.00
51595;DHT22;37677;53.254;6.594;2022-07-10T05:37:52;15.30;1.00
51595;DHT22;37677;53.254;6.594;2022-07-10T05:40:18;15.30;1.00
51595;DHT22;37677;53.254;6.594;2022-07-10T05:42:44;15.30;1.00
51595;DHT22;37677;53.254;6.594;2022-07-10T05:45:10;15.30;1.00
51595;DHT22;37677;53.254;6.594;2022-07-10T05:47:36;15.80;1.00
51595;DHT22;37677;53.254;6.594;2022-07-10T05:50:03;15.40;1.00
51595;DHT22;37677;53.254;6.594;2022-07-10T05:52:29;15.40;1.00
51595;DHT22;37677;53.254;6.594;2022-07-10T05:54:57;15.40;1.00
51595;DHT22;37677;53.254;6.594;2022-07-10T05:57:24;15.60;1.00
51595;DHT22;37677;53.254;6.594;2022-07-10T05:59:50;15.30;1.00
51595;DHT22;37677;53.254;6.594;2022-07-10T06:02:16;15.40;1.00
51595;DHT22;37677;53.254;6.594;2022-07-10T06:04:42;15.40;1.00
51595;DHT22;37677;53.254;6.594;2022-07-10T06:07:07;15.40;1.00
51595;DHT22;37677;53.254;6.594;2022-07-10T06:09:34;15.60;1.00
51595;DHT22;37677;53.254;6.594;2022-07-10T06:12:02;15.40;1.00
51595;DHT22;37677;53.254;6.594;2022-07-10T06:14:27;15.40;1.00
51595;DHT22;37677;53.254;6.594;2022-07-10T06:16:53;15.40;1.00
51595;DHT22;37677;53.254;6.594;2022-07-10T06:19:19;15.40;5.60
51595;DHT22;37677;53.254;6.594;2022-07-10T06:21:44;15.50;4.40
51595;DHT22;37677;53.254;6.594;2022-07-10T06:24:10;15.60;7.50
51595;DHT22;37677;53.254;6.594;2022-07-10T06:26:36;15.50;10.50
51595;DHT22;37677;53.254;6.594;2022-07-10T06:29:02;15.50;14.60
51595;DHT22;37677;53.254;6.594;2022-07-10T06:31:27;15.50;15.30
51595;DHT22;37677;53.254;6.594;2022-07-10T06:33:54;15.50;21.00
51595;DHT22;37677;53.254;6.594;2022-07-10T06:36:20;15.50;23.80
51595;DHT22;37677;53.254;6.594;2022-07-10T06:38:45;15.60;28.70
51595;DHT22;37677;53.254;6.594;2022-07-10T06:41:11;15.60;25.30
51595;DHT22;37677;53.254;6.594;2022-07-10T06:43:36;15.50;24.70
51595;DHT22;37677;53.254;6.594;2022-07-10T06:46:02;15.40;25.20
51595;DHT22;37677;53.254;6.594;2022-07-10T06:48:28;15.40;26.50
51595;DHT22;37677;53.254;6.594;2022-07-10T06:50:54;15.40;29.50
51595;DHT22;37677;53.254;6.594;2022-07-10T06:53:20;15.30;31.80
51595;DHT22;37677;53.254;6.594;2022-07-10T06:55:53;15.40;37.40
51595;DHT22;37677;53.254;6.594;2022-07-10T06:58:19;15.40;35.50
51595;DHT22;37677;53.254;6.594;2022-07-10T07:00:44;15.50;38.70
51595;DHT22;37677;53.254;6.594;2022-07-10T07:03:10;15.50;39.50
51595;DHT22;37677;53.254;6.594;2022-07-10T07:05:36;15.50;42.80
51595;DHT22;37677;53.254;6.594;2022-07-10T07:08:02;15.50;42.50
51595;DHT22;37677;53.254;6.594;2022-07-10T07:10:27;15.50;37.90
51595;DHT22;37677;53.254;6.594;2022-07-10T07:12:53;15.60;34.80
51595;DHT22;37677;53.254;6.594;2022-07-10T07:15:19;15.60;35.50
51595;DHT22;37677;53.254;6.594;2022-07-10T07:17:48;15.70;36.90
51595;DHT22;37677;53.254;6.594;2022-07-10T07:20:24;15.70;31.80
51595;DHT22;37677;53.254;6.594;2022-07-10T07:23:09;15.80;27.90
51595;DHT22;37677;53.254;6.594;2022-07-10T07:25:35;15.90;28.00
51595;DHT22;37677;53.254;6.594;2022-07-10T07:28:02;15.90;29.00
51595;DHT22;37677;53.254;6.594;2022-07-10T07:30:27;15.90;28.10
51595;DHT22;37677;53.254;6.594;2022-07-10T07:32:53;15.80;30.20
51595;DHT22;37677;53.254;6.594;2022-07-10T07:35:19;15.60;34.40
51595;DHT22;37677;53.254;6.594;2022-07-10T07:37:47;15.70;35.80
51595;DHT22;37677;53.254;6.594;2022-07-10T07:40:20;15.60;45.40
51595;DHT22;37677;53.254;6.594;2022-07-10T07:42:48;15.60;50.50
51595;DHT22;37677;53.254;6.594;2022-07-10T07:45:14;15.60;50.30
51595;DHT22;37677;53.254;6.594;2022-07-10T07:47:51;15.60;50.90
51595;DHT22;37677;53.254;6.594;2022-07-10T07:50:21;15.80;48.30
51595;DHT22;37677;53.254;6.594;2022-07-10T07:52:48;15.90;47.70
51595;DHT22;37677;53.254;6.594;2022-07-10T07:55:15;15.90;45.90
51595;DHT22;37677;53.254;6.594;2022-07-10T07:57:42;16.00;41.60
51595;DHT22;37677;53.254;6.594;2022-07-10T08:00:09;16.00;37.70
51595;DHT22;37677;53.254;6.594;2022-07-10T08:02:35;16.00;35.20
51595;DHT22;37677;53.254;6.594;2022-07-10T08:05:02;15.90;34.90
51595;DHT22;37677;53.254;6.594;2022-07-10T08:07:39;15.90;36.60
51595;DHT22;37677;53.254;6.594;2022-07-10T08:10:07;15.80;46.50
51595;DHT22;37677;53.254;6.594;2022-07-10T08:12:33;15.70;50.10
51595;DHT22;37677;53.254;6.594;2022-07-10T08:14:59;15.70;55.30
51595;DHT22;37677;53.254;6.594;2022-07-10T08:17:26;15.70;56.00
51595;DHT22;37677;53.254;6.594;2022-07-10T08:19:52;15.70;59.00
51595;DHT22;37677;53.254;6.594;2022-07-10T08:22:18;15.80;62.10
51595;DHT22;37677;53.254;6.594;2022-07-10T08:24:44;16.00;59.10
51595;DHT22;37677;53.254;6.594;2022-07-10T08:27:10;16.20;54.40
51595;DHT22;37677;53.254;6.594;2022-07-10T08:29:35;16.40;47.60
51595;DHT22;37677;53.254;6.594;2022-07-10T08:32:01;16.50;45.10
51595;DHT22;37677;53.254;6.594;2022-07-10T08:34:27;16.50;39.10
51595;DHT22;37677;53.254;6.594;2022-07-10T08:36:54;16.60;38.50
51595;DHT22;37677;53.254;6.594;2022-07-10T08:39:19;16.40;37.20
51595;DHT22;37677;53.254;6.594;2022-07-10T08:41:50;16.30;47.70
51595;DHT22;37677;53.254;6.594;2022-07-10T08:44:17;16.30;51.30
51595;DHT22;37677;53.254;6.594;2022-07-10T08:46:46;16.40;51.00
51595;DHT22;37677;53.254;6.594;2022-07-10T08:49:12;16.40;50.50
51595;DHT22;37677;53.254;6.594;2022-07-10T08:51:52;16.60;47.70
51595;DHT22;37677;53.254;6.594;2022-07-10T08:54:20;16.80;49.30
51595;DHT22;37677;53.254;6.594;2022-07-10T08:56:47;16.90;45.60
51595;DHT22;37677;53.254;6.594;2022-07-10T08:59:14;17.00;46.40
51595;DHT22;37677;53.254;6.594;2022-07-10T09:01:40;17.10;36.00
51595;DHT22;37677;53.254;6.594;2022-07-10T09:04:05;17.20;37.30
51595;DHT22;37677;53.254;6.594;2022-07-10T09:06:32;17.10;34.70
51595;DHT22;37677;53.254;6.594;2022-07-10T09:09:05;17.80;33.30
51595;DHT22;37677;53.254;6.594;2022-07-10T09:11:32;17.10;19.30
51595;DHT22;37677;53.254;6.594;2022-07-10T09:14:02;17.10;19.70
51595;DHT22;37677;53.254;6.594;2022-07-10T09:16:36;17.10;2.90
51595;DHT22;37677;53.254;6.594;2022-07-10T09:19:22;17.10;2.40
51595;DHT22;37677;53.254;6.594;2022-07-10T09:24:35;17.00;1.00
51595;DHT22;37677;53.254;6.594;2022-07-10T09:27:01;16.80;1.00
51595;DHT22;37677;53.254;6.594;2022-07-10T09:29:29;16.90;6.50
51595;DHT22;37677;53.254;6.594;2022-07-10T09:31:59;17.00;13.60
51595;DHT22;37677;53.254;6.594;2022-07-10T09:34:36;17.00;14.50
51595;DHT22;37677;53.254;6.594;2022-07-10T09:37:22;17.00;11.80
51595;DHT22;37677;53.254;6.594;2022-07-10T09:40:00;16.90;10.00
51595;DHT22;37677;53.254;6.594;2022-07-10T09:42:32;16.80;1.00
51595;DHT22;37677;53.254;6.594;2022-07-10T09:47:36;16.60;13.70
51595;DHT22;37677;53.254;6.594;2022-07-10T09:50:02;16.50;17.20
51595;DHT22;37677;53.254;6.594;2022-07-10T09:52:28;16.50;26.10
51595;DHT22;37677;53.254;6.594;2022-07-10T09:54:55;16.40;41.30
51595;DHT22;37677;53.254;6.594;2022-07-10T09:57:23;16.30;52.50
51595;DHT22;37677;53.254;6.594;2022-07-10T09:59:51;16.30;60.00
51595;DHT22;37677;53.254;6.594;2022-07-10T10:02:19;16.20;56.70
51595;DHT22;37677;53.254;6.594;2022-07-10T10:04:47;16.10;60.10
51595;DHT22;37677;53.254;6.594;2022-07-10T10:07:14;16.20;60.40
51595;DHT22;37677;53.254;6.594;2022-07-10T10:09:47;16.40;64.40
51595;DHT22;37677;53.254;6.594;2022-07-10T10:12:25;16.30;67.20
51595;DHT22;37677;53.254;6.594;2022-07-10T10:14:52;16.20;70.40
51595;DHT22;37677;53.254;6.594;2022-07-10T10:17:19;16.00;74.70
51595;DHT22;37677;53.254;6.594;2022-07-10T10:19:45;16.10;79.10
51595;DHT22;37677;53.254;6.594;2022-07-10T10:22:32;16.10;76.00
51595;DHT22;37677;53.254;6.594;2022-07-10T10:24:59;15.90;73.50
51595;DHT22;37677;53.254;6.594;2022-07-10T10:27:26;16.10;78.30
51595;DHT22;37677;53.254;6.594;2022-07-10T10:29:53;16.10;80.20
51595;DHT22;37677;53.254;6.594;2022-07-10T10:32:19;16.20;79.80
51595;DHT22;37677;53.254;6.594;2022-07-10T10:34:46;16.30;78.20
51595;DHT22;37677;53.254;6.594;2022-07-10T10:39:53;16.70;78.30
51595;DHT22;37677;53.254;6.594;2022-07-10T10:42:39;16.80;71.60
51595;DHT22;37677;53.254;6.594;2022-07-10T10:45:31;17.00;65.90
51595;DHT22;37677;53.254;6.594;2022-07-10T10:47:59;17.10;58.90
51595;DHT22;37677;53.254;6.594;2022-07-10T10:50:39;16.90;60.00
51595;DHT22;37677;53.254;6.594;2022-07-10T10:53:15;16.60;66.60
51595;DHT22;37677;53.254;6.594;2022-07-10T10:58:37;16.20;83.30
51595;DHT22;37677;53.254;6.594;2022-07-10T11:01:24;16.20;86.00
51595;DHT22;37677;53.254;6.594;2022-07-10T11:07:02;16.30;85.00
51595;DHT22;37677;53.254;6.594;2022-07-10T11:09:33;16.10;85.00
51595;DHT22;37677;53.254;6.594;2022-07-10T11:12:03;16.50;87.70
51595;DHT22;37677;53.254;6.594;2022-07-10T11:14:32;16.40;88.40
51595;DHT22;37677;53.254;6.594;2022-07-10T11:16:58;16.80;90.90
51595;DHT22;37677;53.254;6.594;2022-07-10T11:19:25;17.00;87.50
51595;DHT22;37677;53.254;6.594;2022-07-10T11:30:18;16.90;75.10
51595;DHT22;37677;53.254;6.594;2022-07-10T11:32:43;16.80;73.30
51595;DHT22;37677;53.254;6.594;2022-07-10T11:35:13;16.80;74.30
51595;DHT22;37677;53.254;6.594;2022-07-10T11:37:54;16.80;75.50
51595;DHT22;37677;53.254;6.594;2022-07-10T11:40:20;16.90;70.10
51595;DHT22;37677;53.254;6.594;2022-07-10T11:42:56;17.10;65.90
51595;DHT22;37677;53.254;6.594;2022-07-10T11:45:24;17.30;59.10
51595;DHT22;37677;53.254;6.594;2022-07-10T11:47:50;17.60;54.00
51595;DHT22;37677;53.254;6.594;2022-07-10T11:50:16;17.80;46.90
51595;DHT22;37677;53.254;6.594;2022-07-10T11:52:42;18.00;45.90
51595;DHT22;37677;53.254;6.594;2022-07-10T11:55:20;18.20;39.00
51595;DHT22;37677;53.254;6.594;2022-07-10T11:57:47;18.20;19.80
51595;DHT22;37677;53.254;6.594;2022-07-10T12:00:23;18.30;28.70
51595;DHT22;37677;53.254;6.594;2022-07-10T12:02:50;18.20;24.50
51595;DHT22;37677;53.254;6.594;2022-07-10T12:05:36;18.20;22.20
51595;DHT22;37677;53.254;6.594;2022-07-10T12:08:03;18.30;3.30
51595;DHT22;37677;53.254;6.594;2022-07-10T12:10:30;18.20;11.50
51595;DHT22;37677;53.254;6.594;2022-07-10T12:13:08;18.20;4.90
51595;DHT22;37677;53.254;6.594;2022-07-10T12:15:38;18.10;8.10
51595;DHT22;37677;53.254;6.594;2022-07-10T12:18:05;18.20;11.00
51595;DHT22;37677;53.254;6.594;2022-07-10T12:20:32;18.20;11.00
51595;DHT22;37677;53.254;6.594;2022-07-10T12:22:58;18.30;8.70
51595;DHT22;37677;53.254;6.594;2022-07-10T12:25:24;18.30;8.40
51595;DHT22;37677;53.254;6.594;2022-07-10T12:27:58;18.30;2.30
51595;DHT22;37677;53.254;6.594;2022-07-10T12:30:37;18.20;1.00
51595;DHT22;37677;53.254;6.594;2022-07-10T12:35:58;18.20;1.00
51595;DHT22;37677;53.254;6.594;2022-07-10T12:38:25;18.20;1.00
51595;DHT22;37677;53.254;6.594;2022-07-10T12:41:09;18.20;2.70
51595;DHT22;37677;53.254;6.594;2022-07-10T12:43:36;18.00;1.00
51595;DHT22;37677;53.254;6.594;2022-07-10T12:46:19;18.10;1.00
51595;DHT22;37677;53.254;6.594;2022-07-10T12:49:20;18.00;1.00
51595;DHT22;37677;53.254;6.594;2022-07-10T12:51:47;17.80;11.10
51595;DHT22;37677;53.254;6.594;2022-07-10T12:54:35;17.80;17.30
51595;DHT22;37677;53.254;6.594;2022-07-10T12:57:03;17.80;19.20
51595;DHT22;37677;53.254;6.594;2022-07-10T12:59:36;17.90;18.10
51595;DHT22;37677;53.254;6.594;2022-07-10T13:02:19;17.90;19.70
51595;DHT22;37677;53.254;6.594;2022-07-10T13:04:53;17.80;24.10
51595;DHT22;37677;53.254;6.594;2022-07-10T13:07:19;17.40;28.90
51595;DHT22;37677;53.254;6.594;2022-07-10T13:09:47;17.50;30.60
51595;DHT22;37677;53.254;6.594;2022-07-10T13:12:15;17.70;31.00
51595;DHT22;37677;53.254;6.594;2022-07-10T13:14:41;17.70;24.60
51595;DHT22;37677;53.254;6.594;2022-07-10T13:17:07;17.70;28.10
51595;DHT22;37677;53.254;6.594;2022-07-10T13:19:32;17.60;32.70
51595;DHT22;37677;53.254;6.594;2022-07-10T13:21:58;18.00;29.50
51595;DHT22;37677;53.254;6.594;2022-07-10T13:24:24;17.90;23.90
51595;DHT22;37677;53.254;6.594;2022-07-10T13:26:53;18.00;22.80
51595;DHT22;37677;53.254;6.594;2022-07-10T13:29:21;18.40;27.10
51595;DHT22;37677;53.254;6.594;2022-07-10T13:31:46;18.00;22.80
51595;DHT22;37677;53.254;6.594;2022-07-10T13:34:12;18.10;23.90
51595;DHT22;37677;53.254;6.594;2022-07-10T13:36:38;18.10;18.90
51595;DHT22;37677;53.254;6.594;2022-07-10T13:39:04;18.10;17.50
51595;DHT22;37677;53.254;6.594;2022-07-10T13:41:29;18.30;19.60
51595;DHT22;37677;53.254;6.594;2022-07-10T13:43:55;18.40;16.20
51595;DHT22;37677;53.254;6.594;2022-07-10T13:46:21;18.60;10.20
51595;DHT22;37677;53.254;6.594;2022-07-10T13:48:46;18.40;11.60
51595;DHT22;37677;53.254;6.594;2022-07-10T13:51:12;18.30;9.30
51595;DHT22;37677;53.254;6.594;2022-07-10T13:53:38;18.30;15.20
51595;DHT22;37677;53.254;6.594;2022-07-10T13:56:07;18.20;14.60
51595;DHT22;37677;53.254;6.594;2022-07-10T13:58:34;18.10;18.10
51595;DHT22;37677;53.254;6.594;2022-07-10T14:01:00;18.00;20.90
51595;DHT22;37677;53.254;6.594;2022-07-10T14:03:26;17.90;26.20
51595;DHT22;37677;53.254;6.594;2022-07-10T14:05:53;17.90;26.70
51595;DHT22;37677;53.254;6.594;2022-07-10T14:08:18;17.90;26.00
51595;DHT22;37677;53.254;6.594;2022-07-10T14:10:44;17.90;27.50
51595;DHT22;37677;53.254;6.594;2022-07-10T14:13:10;17.80;18.70
51595;DHT22;37677;53.254;6.594;2022-07-10T14:15:36;17.90;16.20
51595;DHT22;37677;53.254;6.594;2022-07-10T14:18:02;17.90;8.80
51595;DHT22;37677;53.254;6.594;2022-07-10T14:20:30;17.90;7.20
51595;DHT22;37677;53.254;6.594;2022-07-10T14:23:16;18.00;8.90
51595;DHT22;37677;53.254;6.594;2022-07-10T14:25:42;18.10;4.60
51595;DHT22;37677;53.254;6.594;2022-07-10T14:28:08;18.00;6.10
51595;DHT22;37677;53.254;6.594;2022-07-10T14:30:33;18.20;5.30
51595;DHT22;37677;53.254;6.594;2022-07-10T14:32:59;18.40;1.00
51595;DHT22;37677;53.254;6.594;2022-07-10T14:35:25;18.40;1.00
51595;DHT22;37677;53.254;6.594;2022-07-10T14:37:51;18.50;1.00
51595;DHT22;37677;53.254;6.594;2022-07-10T14:40:16;18.50;1.00
51595;DHT22;37677;53.254;6.594;2022-07-10T14:42:42;18.50;1.00
51595;DHT22;37677;53.254;6.594;2022-07-10T14:45:08;18.50;1.00
51595;DHT22;37677;53.254;6.594;2022-07-10T14:47:34;18.50;1.00
51595;DHT22;37677;53.254;6.594;2022-07-10T14:50:00;18.50;1.00
51595;DHT22;37677;53.254;6.594;2022-07-10T14:52:25;18.40;1.00
51595;DHT22;37677;53.254;6.594;2022-07-10T14:54:53;17.70;1.00
51595;DHT22;37677;53.254;6.594;2022-07-10T14:57:19;18.30;1.00
51595;DHT22;37677;53.254;6.594;2022-07-10T14:59:44;18.40;1.00
51595;DHT22;37677;53.254;6.594;2022-07-10T15:02:10;18.50;1.00
51595;DHT22;37677;53.254;6.594;2022-07-10T15:04:35;18.50;1.00
51595;DHT22;37677;53.254;6.594;2022-07-10T15:07:01;18.50;1.00
51595;DHT22;37677;53.254;6.594;2022-07-10T15:09:27;18.50;1.00
51595;DHT22;37677;53.254;6.594;2022-07-10T15:11:52;18.50;1.00
51595;DHT22;37677;53.254;6.594;2022-07-10T15:14:19;18.60;1.00
51595;DHT22;37677;53.254;6.594;2022-07-10T15:16:45;18.60;1.00
51595;DHT22;37677;53.254;6.594;2022-07-10T15:19:11;18.70;1.00
51595;DHT22;37677;53.254;6.594;2022-07-10T15:21:37;18.70;1.00
51595;DHT22;37677;53.254;6.594;2022-07-10T15:24:03;18.80;1.00
51595;DHT22;37677;53.254;6.594;2022-07-10T15:26:29;19.00;1.00
51595;DHT22;37677;53.254;6.594;2022-07-10T15:28:54;19.10;1.00
51595;DHT22;37677;53.254;6.594;2022-07-10T15:31:24;19.20;1.00
51595;DHT22;37677;53.254;6.594;2022-07-10T15:33:50;19.30;1.00
51595;DHT22;37677;53.254;6.594;2022-07-10T15:36:15;19.30;1.00
51595;DHT22;37677;53.254;6.594;2022-07-10T15:38:41;19.20;1.00
51595;DHT22;37677;53.254;6.594;2022-07-10T15:41:07;19.10;1.00
51595;DHT22;37677;53.254;6.594;2022-07-10T15:43:33;19.20;1.00
51595;DHT22;37677;53.254;6.594;2022-07-10T15:45:59;19.20;1.00
51595;DHT22;37677;53.254;6.594;2022-07-10T15:48:25;19.30;1.00
51595;DHT22;37677;53.254;6.594;2022-07-10T15:50:51;19.20;1.00
51595;DHT22;37677;53.254;6.594;2022-07-10T15:53:17;19.20;1.00
51595;DHT22;37677;53.254;6.594;2022-07-10T15:55:44;19.20;1.00
51595;DHT22;37677;53.254;6.594;2022-07-10T15:58:09;19.20;1.00
51595;DHT22;37677;53.254;6.594;2022-07-10T16:00:36;19.30;1.00
51595;DHT22;37677;53.254;6.594;2022-07-10T16:03:01;19.30;1.00
51595;DHT22;37677;53.254;6.594;2022-07-10T16:05:27;19.50;1.00
51595;DHT22;37677;53.254;6.594;2022-07-10T16:07:53;19.50;1.00